Time;durP1;ratioP1;P1;durP2;ratioP2;P2;SDS_P1;SDS_P2;PMS_P1;PMS_P2;Temp;Humidity;BMP_temperature;BMP_pressure;BME280_temperature;BME280_humidity;BME280_pressure;Samples;Min_cycle;Max_cycle;Signal;HPM_P1;HPM_P2
2023/11/11 00:00:19;;;;;;;3.03;2.63;;;;;;;8.25;100.00;99697.78;6075403;28;20301;-69
2023/11/11 00:03:40;;;;;;;3.00;2.53;;;;;;;8.32;100.00;99692.66;6081672;28;20228;-68
2023/11/11 00:07:02;;;;;;;3.47;3.17;;;;;;;8.24;100.00;99692.53;6075298;28;20264;-69
2023/11/11 00:10:23;;;;;;;3.30;2.50;;;;;;;8.18;100.00;99693.97;6073369;28;20221;-70
2023/11/11 00:13:45;;;;;;;4.07;3.10;;;;;;;8.05;100.00;99686.25;6064690;28;20232;-67
2023/11/11 00:17:07;;;;;;;4.27;3.37;;;;;;;8.03;100.00;99685.56;6077547;28;20240;-68
2023/11/11 00:20:28;;;;;;;3.70;3.40;;;;;;;8.02;100.00;99683.03;6079238;28;20236;-69
2023/11/11 00:23:50;;;;;;;5.03;3.50;;;;;;;8.06;100.00;99687.97;6073064;28;20244;-68
2023/11/11 00:27:12;;;;;;;9.17;3.80;;;;;;;8.09;100.00;99687.66;6075877;28;20233;-68
2023/11/11 00:30:33;;;;;;;4.77;3.10;;;;;;;7.97;100.00;99679.94;6075082;28;20351;-68
2023/11/11 00:33:55;;;;;;;4.77;4.30;;;;;;;8.02;100.00;99675.84;6073348;28;20236;-69
2023/11/11 00:37:17;;;;;;;3.90;3.60;;;;;;;8.09;100.00;99684.16;6065290;28;20237;-69
2023/11/11 00:40:40;;;;;;;4.10;3.70;;;;;;;8.11;100.00;99687.53;6075791;28;20648;-68
2023/11/11 00:44:02;;;;;;;3.57;3.27;;;;;;;8.07;100.00;99681.59;6093713;28;20606;-69
2023/11/11 00:47:23;;;;;;;4.07;3.33;;;;;;;8.01;100.00;99679.50;6094029;28;20319;-69
2023/11/11 00:50:43;;;;;;;5.73;4.27;;;;;;;8.07;100.00;99681.59;6077893;28;20252;-68
2023/11/11 00:54:05;;;;;;;4.93;3.70;;;;;;;8.07;100.00;99675.41;6079669;28;20335;-68
2023/11/11 00:57:27;;;;;;;3.47;2.97;;;;;;;8.08;100.00;99677.94;6079674;28;20236;-68
2023/11/11 01:00:48;;;;;;;4.23;3.90;;;;;;;8.11;100.00;99678.63;6079018;28;20642;-69
2023/11/11 01:04:09;;;;;;;4.23;3.90;;;;;;;8.12;100.00;99677.59;6078649;28;20951;-68
2023/11/11 01:07:30;;;;;;;4.17;3.77;;;;;;;8.10;100.00;99683.13;6079194;28;20236;-68
2023/11/11 01:10:51;;;;;;;3.77;3.47;;;;;;;8.19;100.00;99684.94;6081610;28;20237;-68
2023/11/11 01:14:14;;;;;;;4.80;4.40;;;;;;;8.15;100.00;99688.06;6078334;28;20741;-69
2023/11/11 01:17:36;;;;;;;6.73;4.93;;;;;;;8.08;100.00;99690.50;6079163;28;22570;-69
2023/11/11 01:21:02;;;;;;;5.23;3.93;;;;;;;8.06;100.00;99687.97;6082941;28;20529;-68
2023/11/11 01:24:23;;;;;;;8.87;5.50;;;;;;;8.16;100.00;99693.25;6066973;28;20221;-69
2023/11/11 01:27:44;;;;;;;7.57;5.53;;;;;;;8.11;100.00;99694.72;6086977;28;20255;-68
2023/11/11 01:31:06;;;;;;;5.03;3.97;;;;;;;8.05;100.00;99688.94;6082632;28;20241;-68
2023/11/11 01:34:28;;;;;;;5.67;4.40;;;;;;;8.03;100.00;99688.25;6083324;28;20232;-69
2023/11/11 01:37:49;;;;;;;4.97;4.47;;;;;;;8.05;100.00;99685.44;6088106;28;20225;-69
2023/11/11 01:41:13;;;;;;;6.37;4.83;;;;;;;8.10;100.00;99688.50;6086625;28;20237;-69
2023/11/11 01:44:36;;;;;;;4.80;4.40;;;;;;;8.04;100.00;99689.97;6079084;28;20260;-69
2023/11/11 01:47:59;;;;;;;5.13;4.63;;;;;;;8.06;100.00;99690.66;6080519;28;20233;-68
2023/11/11 01:51:21;;;;;;;6.67;4.83;;;;;;;8.12;100.00;99686.50;6092822;28;20599;-68
2023/11/11 01:54:42;;;;;;;3.93;3.60;;;;;;;8.09;100.00;99692.19;6074845;28;20257;-68
2023/11/11 01:58:04;;;;;;;3.93;3.63;;;;;;;8.06;100.00;99687.97;6080114;28;20676;-68
2023/11/11 02:01:25;;;;;;;4.63;4.23;;;;;;;8.09;100.00;99693.00;6077043;28;20323;-69
2023/11/11 02:04:47;;;;;;;3.93;3.53;;;;;;;8.06;100.00;99690.66;6086840;28;20233;-68
2023/11/11 02:08:08;;;;;;;4.83;4.37;;;;;;;8.09;100.00;99681.47;6079301;28;20510;-69
2023/11/11 02:11:29;;;;;;;3.83;3.47;;;;;;;8.11;100.00;99692.88;6075540;28;20233;-68
2023/11/11 02:14:50;;;;;;;5.20;3.53;;;;;;;8.15;100.00;99685.38;6076574;28;20248;-68
2023/11/11 02:18:12;;;;;;;3.90;3.50;;;;;;;8.17;100.00;99694.13;6077850;28;20332;-69
2023/11/11 02:21:34;;;;;;;4.53;3.00;;;;;;;8.10;100.00;99693.88;6086911;28;20413;-69
2023/11/11 02:24:59;;;;;;;3.13;2.83;;;;;;;8.09;100.00;99686.81;6072800;28;20225;-68
2023/11/11 02:28:20;;;;;;;4.10;3.10;;;;;;;8.21;100.00;99684.78;6085376;28;20234;-69
2023/11/11 02:31:41;;;;;;;3.57;3.27;;;;;;;8.01;100.00;99678.66;6083881;28;20241;-68
2023/11/11 02:35:05;;;;;;;3.67;3.17;;;;;;;8.11;100.00;99689.34;6084092;28;20228;-69
2023/11/11 02:38:28;;;;;;;3.70;2.93;;;;;;;8.05;100.00;99688.13;6074651;28;20237;-69
2023/11/11 02:41:50;;;;;;;8.10;3.70;;;;;;;8.09;100.00;99684.16;6082444;28;20229;-68
2023/11/11 02:45:23;;;;;;;3.37;3.07;;;;;;;8.06;100.00;99687.13;6086869;28;20521;-68
2023/11/11 02:48:50;;;;;;;8.53;2.90;;;;;;;8.13;100.00;99692.72;6082920;28;20574;-68
2023/11/11 02:52:11;;;;;;;4.53;3.13;;;;;;;8.13;100.00;99690.91;6072364;28;20237;-68
2023/11/11 02:55:32;;;;;;;6.63;3.03;;;;;;;8.08;100.00;99702.06;6086464;28;20594;-69
2023/11/11 02:58:54;;;;;;;2.90;2.47;;;;;;;8.14;100.00;99691.72;6075382;28;20339;-69
2023/11/11 03:02:15;;;;;;;3.17;2.77;;;;;;;8.18;100.00;99691.28;6084084;28;20232;-68
2023/11/11 03:05:36;;;;;;;4.00;3.70;;;;;;;8.10;100.00;99693.88;6083332;28;20276;-68
2023/11/11 03:08:58;;;;;;;3.70;3.40;;;;;;;8.07;100.00;99689.63;6079675;28;20220;-68
2023/11/11 03:12:18;;;;;;;3.70;3.40;;;;;;;8.22;100.00;99694.53;6058146;28;20229;-67
2023/11/11 03:15:40;;;;;;;4.50;4.10;;;;;;;8.17;100.00;99694.97;6082122;28;20812;-68
2023/11/11 03:19:01;;;;;;;3.80;3.50;;;;;;;8.14;100.00;99691.72;6087144;28;20257;-69
2023/11/11 03:22:23;;;;;;;5.00;3.80;;;;;;;8.24;100.00;99698.72;6081939;28;20265;-69
2023/11/11 03:25:44;;;;;;;5.87;3.90;;;;;;;8.24;100.00;99698.72;6072851;28;21655;-68
2023/11/11 03:29:05;;;;;;;4.73;4.07;;;;;;;8.22;100.00;99691.84;6079743;28;20232;-68
2023/11/11 03:32:28;;;;;;;4.70;3.57;;;;;;;8.28;100.00;99694.78;6082453;28;20247;-67
2023/11/11 03:35:50;;;;;;;4.00;3.07;;;;;;;8.37;100.00;99698.41;6078793;28;20232;-68
2023/11/11 03:39:12;;;;;;;5.93;4.10;;;;;;;8.41;100.00;99699.78;6081874;28;20249;-68
2023/11/11 03:42:32;;;;;;;5.43;4.10;;;;;;;8.28;100.00;99694.78;6081848;28;20245;-68
2023/11/11 03:45:53;;;;;;;3.30;3.10;;;;;;;8.25;100.00;99688.84;6080361;28;20233;-68
2023/11/11 03:49:16;;;;;;;5.40;4.33;;;;;;;8.26;100.00;99694.09;6081457;28;20237;-68
2023/11/11 03:52:40;;;;;;;6.60;4.93;;;;;;;8.27;100.00;99684.19;6077206;28;20244;-68
2023/11/11 03:56:03;;;;;;;5.33;4.70;;;;;;;8.36;100.00;99688.66;6076244;28;20241;-68
2023/11/11 03:59:24;;;;;;;3.73;3.43;;;;;;;8.23;100.00;99685.47;6080988;28;20236;-68
2023/11/11 04:02:45;;;;;;;5.37;4.87;;;;;;;8.18;100.00;99683.22;6081844;28;20598;-69
2023/11/11 04:06:11;;;;;;;4.57;4.17;;;;;;;8.26;100.00;99683.34;6074730;28;20241;-68
2023/11/11 04:09:33;;;;;;;5.97;4.17;;;;;;;8.27;100.00;99681.50;6078420;28;20674;-68
2023/11/11 04:12:56;;;;;;;6.30;4.60;;;;;;;8.38;100.00;99684.00;6085777;28;20252;-68
2023/11/11 04:16:17;;;;;;;4.07;3.53;;;;;;;8.40;100.00;99682.00;6077787;28;20232;-69
2023/11/11 04:19:38;;;;;;;3.90;3.57;;;;;;;8.47;100.00;99683.91;6078741;28;20261;-68
2023/11/11 04:23:01;;;;;;;3.53;3.23;;;;;;;8.49;100.00;99695.34;6078649;28;20307;-68
2023/11/11 04:26:22;;;;;;;4.47;2.30;;;;;;;8.38;100.00;99697.41;6076860;28;20237;-68
2023/11/11 04:29:43;;;;;;;3.77;3.20;;;;;;;8.22;100.00;99697.22;6079834;28;20315;-68
2023/11/11 04:33:03;;;;;;;6.43;3.30;;;;;;;8.22;100.00;99700.72;6088328;28;20233;-68
2023/11/11 04:36:25;;;;;;;4.27;2.97;;;;;;;8.13;100.00;99701.63;6087345;28;20229;-68
2023/11/11 04:39:47;;;;;;;5.87;3.13;;;;;;;8.13;100.00;99703.47;6087579;28;20233;-68
2023/11/11 04:43:08;;;;;;;3.30;3.03;;;;;;;8.12;100.00;99707.13;6091388;28;20256;-68
2023/11/11 04:46:39;;;;;;;4.93;3.33;;;;;;;8.17;100.00;99704.84;6081509;28;20260;-69
2023/11/11 04:50:00;;;;;;;3.53;3.23;;;;;;;8.17;100.00;99710.22;6073776;28;20626;-68
2023/11/11 04:53:22;;;;;;;2.93;2.73;;;;;;;8.15;100.00;99715.75;6087847;28;20236;-68
2023/11/11 04:56:44;;;;;;;3.30;2.53;;;;;;;8.02;100.00;99717.94;6085767;28;20614;-68
2023/11/11 05:00:10;;;;;;;4.60;3.30;;;;;;;8.00;100.00;99726.13;6089506;28;20260;-68
2023/11/11 05:03:31;;;;;;;5.10;2.73;;;;;;;7.96;100.00;99730.09;6078950;28;20228;-68
2023/11/11 05:06:52;;;;;;;4.00;2.20;;;;;;;7.98;100.00;99736.19;6101362;28;20241;-68
2023/11/11 05:10:13;;;;;;;3.07;2.43;;;;;;;8.08;100.00;99739.66;6093487;28;20228;-68
2023/11/11 05:13:41;;;;;;;3.37;2.63;;;;;;;8.03;100.00;99739.25;6093058;28;20233;-68
2023/11/11 05:17:07;;;;;;;4.20;2.67;;;;;;;8.01;100.00;99740.38;6083841;28;20233;-69
2023/11/11 05:20:27;;;;;;;3.97;2.80;;;;;;;8.04;100.00;99738.25;6082942;28;20233;-68
2023/11/11 05:23:49;;;;;;;3.77;3.30;;;;;;;8.04;100.00;99740.94;6076725;28;20766;-69
2023/11/11 05:27:10;;;;;;;3.10;2.90;;;;;;;8.08;100.00;99742.34;6081899;28;20232;-70
2023/11/11 05:30:32;;;;;;;6.23;3.07;;;;;;;8.12;100.00;99744.72;6075780;28;20240;-69
2023/11/11 05:33:53;;;;;;;4.33;3.03;;;;;;;8.16;100.00;99746.09;6086751;28;20619;-68
2023/11/11 05:37:13;;;;;;;4.83;3.70;;;;;;;8.18;100.00;99747.66;6075777;28;20232;-68
2023/11/11 05:40:34;;;;;;;3.27;2.97;;;;;;;8.16;100.00;99752.31;6075924;28;20236;-68
2023/11/11 05:43:55;;;;;;;3.40;3.10;;;;;;;8.17;100.00;99755.84;6079216;28;20233;-68
2023/11/11 05:47:18;;;;;;;4.50;2.87;;;;;;;8.15;100.00;99765.91;6083888;28;20224;-69
2023/11/11 05:50:39;;;;;;;6.07;3.57;;;;;;;8.24;100.00;99763.16;6084190;28;20603;-68
2023/11/11 05:54:01;;;;;;;5.73;2.37;;;;;;;8.10;100.00;99763.66;6078273;28;20619;-68
2023/11/11 05:57:22;;;;;;;3.33;2.63;;;;;;;8.01;100.00;99765.38;6080080;28;20510;-69
2023/11/11 06:00:43;;;;;;;7.07;2.80;;;;;;;8.21;100.00;99776.03;6063241;28;20264;-67
2023/11/11 06:04:05;;;;;;;3.00;2.70;;;;;;;8.06;100.00;99763.13;6077303;28;20237;-68
2023/11/11 06:07:26;;;;;;;2.53;2.33;;;;;;;8.10;100.00;99774.38;6078417;28;20660;-68
2023/11/11 06:10:48;;;;;;;5.30;2.90;;;;;;;8.07;100.00;99772.84;6077410;28;20232;-69
2023/11/11 06:14:09;;;;;;;3.33;3.03;;;;;;;8.09;100.00;99773.53;6075923;28;20240;-69
2023/11/11 06:17:32;;;;;;;3.20;2.93;;;;;;;8.15;100.00;99779.31;6076033;28;20241;-68
2023/11/11 06:20:54;;;;;;;6.37;3.40;;;;;;;8.08;100.00;99779.91;6069208;28;20544;-69
2023/11/11 06:24:17;;;;;;;4.30;3.77;;;;;;;8.03;100.00;99781.34;6078924;28;20225;-69
2023/11/11 06:27:38;;;;;;;4.17;3.87;;;;;;;8.15;100.00;99788.22;6080581;28;20267;-69
2023/11/11 06:30:59;;;;;;;3.67;2.90;;;;;;;8.27;100.00;99787.06;6070122;28;20228;-69
2023/11/11 06:34:19;;;;;;;3.50;2.70;;;;;;;8.16;100.00;99795.28;6079930;28;20319;-68
2023/11/11 06:37:41;;;;;;;5.00;3.93;;;;;;;8.02;100.00;99795.75;6080870;28;21154;-68
2023/11/11 06:41:02;;;;;;;5.33;3.73;;;;;;;8.13;100.00;99800.09;6079802;28;20232;-68
2023/11/11 06:44:23;;;;;;;5.40;2.70;;;;;;;8.20;100.00;99793.97;6072500;28;20237;-68
2023/11/11 06:47:44;;;;;;;4.03;2.97;;;;;;;8.33;100.00;99794.53;6068666;28;20240;-69
2023/11/11 06:51:05;;;;;;;3.37;3.03;;;;;;;8.11;100.00;99802.09;6077025;28;20332;-68
2023/11/11 06:54:30;;;;;;;3.63;3.30;;;;;;;8.11;100.00;99811.00;6075835;28;20241;-69
2023/11/11 06:57:50;;;;;;;4.73;3.20;;;;;;;8.19;100.00;99815.63;6080915;28;20232;-67
2023/11/11 07:01:12;;;;;;;4.73;3.50;;;;;;;8.33;100.00;99823.22;6074665;28;20323;-68
2023/11/11 07:04:36;;;;;;;5.37;3.23;;;;;;;8.33;100.00;99824.06;6072727;28;20619;-68
2023/11/11 07:08:00;;;;;;;4.23;3.83;;;;;;;8.17;100.00;99826.50;6075630;28;20229;-69
2023/11/11 07:11:22;;;;;;;6.83;4.00;;;;;;;8.21;100.00;99832.41;6074042;28;20421;-68
2023/11/11 07:14:44;;;;;;;4.27;3.87;;;;;;;8.19;100.00;99826.34;6083746;28;20603;-68
2023/11/11 07:18:07;;;;;;;4.20;3.80;;;;;;;8.24;100.00;99834.81;6084780;28;20240;-69
2023/11/11 07:21:30;;;;;;;9.70;5.30;;;;;;;8.17;100.00;99828.34;6076808;28;20236;-68
2023/11/11 07:24:51;;;;;;;4.17;3.87;;;;;;;8.20;100.00;99844.97;6091613;28;20344;-69
2023/11/11 07:28:15;;;;;;;5.17;3.40;;;;;;;8.25;100.00;99845.44;6075827;28;20299;-68
2023/11/11 07:31:36;;;;;;;3.97;2.83;;;;;;;8.22;100.00;99843.00;6074505;28;20261;-69
2023/11/11 07:34:57;;;;;;;6.97;4.63;;;;;;;8.26;100.00;99851.66;6077755;28;20236;-69
2023/11/11 07:38:20;;;;;;;5.80;5.30;;;;;;;8.15;100.00;99855.34;6061402;28;20320;-69
2023/11/11 07:41:40;;;;;;;4.67;4.03;;;;;;;8.29;100.00;99854.03;6084058;28;20324;-69
2023/11/11 07:45:04;;;;;;;5.13;4.63;;;;;;;8.33;100.00;99858.97;6080728;28;20271;-69
2023/11/11 07:48:25;;;;;;;5.47;4.10;;;;;;;8.24;100.00;99867.84;6075807;28;20241;-69
2023/11/11 07:51:46;;;;;;;6.60;5.40;;;;;;;8.09;100.00;99863.97;6077838;28;20308;-68
2023/11/11 07:55:08;;;;;;;6.10;5.13;;;;;;;8.11;100.00;99872.72;6074503;28;20512;-68
2023/11/11 07:58:29;;;;;;;7.73;4.87;;;;;;;8.23;100.00;99874.22;6070041;28;20795;-69
2023/11/11 08:01:51;;;;;;;5.50;4.03;;;;;;;8.22;100.00;99874.38;6075581;28;20233;-68
2023/11/11 08:05:14;;;;;;;6.67;5.77;;;;;;;8.21;100.00;99878.91;6076488;28;20240;-69
2023/11/11 08:08:36;;;;;;;6.03;4.80;;;;;;;8.00;100.00;99884.47;6079407;28;20228;-69
2023/11/11 08:11:58;;;;;;;5.27;4.83;;;;;;;7.94;100.00;99885.03;6072791;28;20228;-68
2023/11/11 08:15:20;;;;;;;6.00;5.30;;;;;;;8.01;100.00;99891.50;6076347;28;20233;-69
2023/11/11 08:18:42;;;;;;;5.93;5.30;;;;;;;8.10;100.00;99895.16;6061492;28;20263;-69
2023/11/11 08:22:05;;;;;;;6.17;5.60;;;;;;;8.14;100.00;99893.03;6076956;28;20240;-70
2023/11/11 08:25:26;;;;;;;7.17;4.60;;;;;;;8.35;100.00;99888.34;6078992;28;20650;-68
2023/11/11 08:28:47;;;;;;;5.40;4.20;;;;;;;8.41;100.00;99893.13;6076305;28;20240;-69
2023/11/11 08:32:08;;;;;;;6.33;5.63;;;;;;;8.41;100.00;99893.13;6072256;28;20602;-70
2023/11/11 08:35:30;;;;;;;5.80;5.30;;;;;;;8.36;100.00;99890.06;6068914;28;20931;-70
2023/11/11 08:38:52;;;;;;;7.60;5.90;;;;;;;8.52;100.00;99893.81;6080775;28;20232;-71
2023/11/11 08:42:14;;;;;;;6.03;5.47;;;;;;;8.31;100.00;99903.91;6081373;28;20681;-70
2023/11/11 08:45:35;;;;;;;10.17;6.53;;;;;;;8.43;100.00;99894.69;6075597;28;20244;-70
2023/11/11 08:48:58;;;;;;;7.03;5.57;;;;;;;8.56;100.00;99897.03;6083784;28;20241;-70
2023/11/11 08:52:23;;;;;;;6.47;4.73;;;;;;;8.32;100.00;99905.63;6078142;28;20240;-69
2023/11/11 08:55:44;;;;;;;8.03;6.00;;;;;;;8.49;100.00;99906.69;6087812;28;20232;-70
2023/11/11 08:59:06;;;;;;;7.50;6.70;;;;;;;8.55;100.00;99906.09;6078953;28;20233;-69
2023/11/11 09:02:27;;;;;;;6.77;6.10;;;;;;;8.34;100.00;99910.84;6077345;28;20699;-70
2023/11/11 09:05:49;;;;;;;8.30;5.30;;;;;;;8.46;100.00;99910.53;6076950;28;20232;-70
2023/11/11 09:09:15;;;;;;;11.67;7.13;;;;;;;8.44;100.00;99907.13;6080588;28;20244;-70
2023/11/11 09:12:37;;;;;;;6.53;5.83;;;;;;;8.57;100.00;99904.13;6084298;28;20238;-69
2023/11/11 09:15:59;;;;;;;10.00;8.10;;;;;;;8.49;100.00;99920.13;6089232;28;20340;-70
2023/11/11 09:19:19;;;;;;;7.60;6.90;;;;;;;8.89;100.00;99911.75;6082532;28;20673;-69
2023/11/11 09:22:40;;;;;;;14.20;7.53;;;;;;;8.76;100.00;99917.47;6084353;28;20241;-70
2023/11/11 09:26:05;;;;;;;10.13;7.87;;;;;;;8.90;100.00;99918.81;6082551;28;20614;-70
2023/11/11 09:29:26;;;;;;;9.63;8.37;;;;;;;8.69;100.00;99924.44;6091503;28;20224;-70
2023/11/11 09:32:47;;;;;;;8.90;7.37;;;;;;;8.60;100.00;99917.25;6082454;28;20225;-70
2023/11/11 09:36:08;;;;;;;10.43;8.30;;;;;;;8.53;100.00;99929.59;6086498;28;20228;-70
2023/11/11 09:39:29;;;;;;;9.90;8.90;;;;;;;8.63;100.00;99927.72;6081494;28;20233;-70
2023/11/11 09:42:52;;;;;;;8.93;8.03;;;;;;;8.54;100.00;99928.56;6082327;28;20233;-70
2023/11/11 09:46:16;;;;;;;15.10;8.07;;;;;;;8.52;100.00;99928.72;6083629;28;20970;-70
2023/11/11 09:49:37;;;;;;;10.27;9.23;;;;;;;8.60;100.00;99936.03;6081087;28;20257;-70
2023/11/11 09:53:00;;;;;;;9.87;8.70;;;;;;;8.56;100.00;99931.97;6081386;28;20233;-69
2023/11/11 09:56:22;;;;;;;9.17;8.23;;;;;;;8.52;100.00;99930.56;6079137;28;20233;-70
2023/11/11 09:59:47;;;;;;;9.97;7.80;;;;;;;8.46;100.00;99932.00;6082594;28;20655;-70
2023/11/11 10:03:08;;;;;;;9.70;8.70;;;;;;;8.49;100.00;99926.31;6086034;28;20877;-71
2023/11/11 10:06:29;;;;;;;10.87;8.67;;;;;;;8.53;100.00;99932.28;6075213;28;22056;-70
2023/11/11 10:09:50;;;;;;;8.53;7.63;;;;;;;8.66;100.00;99930.09;6078330;28;20244;-69
2023/11/11 10:13:11;;;;;;;10.50;8.33;;;;;;;8.82;100.00;99935.69;6079455;29;20249;-70
2023/11/11 10:16:37;;;;;;;8.00;7.27;;;;;;;8.67;100.00;99937.16;6076873;28;20245;-69
2023/11/11 10:19:59;;;;;;;7.37;6.57;;;;;;;8.49;100.00;99942.44;6077657;28;20328;-69
2023/11/11 10:23:20;;;;;;;8.33;7.47;;;;;;;8.71;100.00;99944.78;6084815;28;20248;-69
2023/11/11 10:26:41;;;;;;;5.80;5.20;;;;;;;8.95;100.00;99941.56;6076351;28;20241;-69
2023/11/11 10:30:03;;;;;;;7.47;6.73;;;;;;;8.59;100.00;99950.47;6074867;28;20233;-69
2023/11/11 10:33:27;;;;;;;6.33;5.37;;;;;;;8.57;100.00;99949.78;6071867;29;20233;-69
2023/11/11 10:36:48;;;;;;;9.00;7.50;;;;;;;8.64;100.00;99945.50;6074868;28;20241;-69
2023/11/11 10:40:14;;;;;;;21.07;7.77;;;;;;;8.77;100.00;99949.56;6078241;28;20236;-70
2023/11/11 10:43:35;;;;;;;5.67;4.93;;;;;;;8.67;100.00;99951.44;6086384;28;20240;-70
2023/11/11 10:46:58;;;;;;;5.90;5.30;;;;;;;8.78;100.00;99947.72;6081170;28;20237;-70
2023/11/11 10:50:20;;;;;;;8.93;6.10;;;;;;;8.65;100.00;99948.06;6074765;28;20244;-69
2023/11/11 10:53:43;;;;;;;6.07;5.17;;;;;;;8.67;100.00;99947.91;6074847;28;20281;-70
2023/11/11 10:57:05;;;;;;;6.87;6.07;;;;;;;8.64;100.00;99959.78;6078641;28;20687;-70
2023/11/11 11:00:26;;;;;;;9.97;6.27;;;;;;;8.65;100.00;99958.81;6085170;28;20229;-71
2023/11/11 11:03:48;;;;;;;6.13;4.93;;;;;;;8.70;100.00;99959.19;6077279;28;20240;-70
2023/11/11 11:07:17;;;;;;;5.90;5.30;;;;;;;8.64;100.00;99964.31;6075842;28;20789;-69
2023/11/11 11:10:49;;;;;;;5.13;4.63;;;;;;;8.63;100.00;99965.31;6074138;28;20233;-70
2023/11/11 11:14:16;;;;;;;5.57;4.17;;;;;;;8.59;100.00;99974.66;6066895;28;20232;-70
2023/11/11 11:17:40;;;;;;;5.40;4.50;;;;;;;8.70;100.00;99975.31;6079872;28;20475;-69
2023/11/11 11:21:04;;;;;;;6.50;4.70;;;;;;;8.83;100.00;99965.09;6081821;28;20228;-70
2023/11/11 11:24:26;;;;;;;5.43;4.90;;;;;;;8.84;100.00;99966.78;6069478;28;20328;-70
2023/11/11 11:28:14;;;;;;;5.33;4.60;;;;;;;8.83;100.00;99966.94;6082584;28;20240;-69
2023/11/11 11:32:07;;;;;;;4.40;4.00;;;;;;;8.65;100.00;99966.88;6078225;28;20240;-68
2023/11/11 11:35:29;;;;;;;3.60;3.30;;;;;;;8.73;100.00;99979.56;6077249;28;20228;-70
2023/11/11 11:38:51;;;;;;;3.73;3.40;;;;;;;8.75;100.00;99982.94;6080110;28;20323;-69
2023/11/11 11:42:19;;;;;;;5.43;3.23;;;;;;;8.85;100.00;99989.13;6080847;28;20252;-69
2023/11/11 11:45:42;;;;;;;3.60;3.30;;;;;;;8.71;100.00;99982.41;6082359;28;20257;-69
2023/11/11 11:49:05;;;;;;;2.77;2.57;;;;;;;8.59;100.00;99988.09;6078113;28;20524;-69
2023/11/11 11:52:26;;;;;;;3.93;2.93;;;;;;;8.54;100.00;99987.66;6073000;28;20236;-70
2023/11/11 11:55:47;;;;;;;3.33;2.87;;;;;;;8.51;100.00;99987.97;6077213;28;20640;-70
2023/11/11 11:59:13;;;;;;;2.77;2.57;;;;;;;8.47;100.00;99986.56;6083471;28;20232;-70
2023/11/11 12:02:34;;;;;;;3.97;2.47;;;;;;;8.31;100.00;100002.41;6083958;28;20601;-70
2023/11/11 12:05:56;;;;;;;2.20;1.97;;;;;;;8.26;100.00;99991.28;6085790;28;20228;-70
2023/11/11 12:09:17;;;;;;;2.10;1.90;;;;;;;8.20;100.00;99997.19;6079809;28;20240;-69
2023/11/11 12:12:39;;;;;;;3.13;2.47;;;;;;;8.26;100.00;100002.00;6086339;28;22126;-70
2023/11/11 12:16:01;;;;;;;2.40;1.70;;;;;;;8.23;100.00;100002.25;6084786;28;20229;-71
2023/11/11 12:19:24;;;;;;;2.73;2.53;;;;;;;8.28;100.00;100002.72;6078141;28;20256;-69
2023/11/11 12:22:46;;;;;;;3.07;1.90;;;;;;;8.32;100.00;100001.44;6080201;28;20323;-70
2023/11/11 12:26:07;;;;;;;1.60;1.40;;;;;;;8.36;100.00;100005.53;6068517;28;20591;-69
2023/11/11 12:29:29;;;;;;;3.47;1.73;;;;;;;8.41;100.00;100005.91;6096605;28;20229;-69
2023/11/11 12:33:08;;;;;;;2.10;1.43;;;;;;;8.54;100.00;100004.63;6081855;28;20228;-71
2023/11/11 12:36:29;;;;;;;2.30;1.53;;;;;;;8.52;100.00;100003.09;6074155;28;20232;-70
2023/11/11 12:39:51;;;;;;;2.37;2.17;;;;;;;8.59;100.00;100005.06;6082937;28;20233;-70
2023/11/11 12:43:13;;;;;;;3.70;1.67;;;;;;;8.48;100.00;100009.72;6083621;28;20248;-70
2023/11/11 12:46:39;;;;;;;3.07;2.87;;;;;;;8.62;100.00;100003.91;6082135;28;20254;-70
2023/11/11 12:50:04;;;;;;;2.57;1.73;;;;;;;9.40;100.00;100007.00;6075002;28;20591;-71
2023/11/11 12:53:25;;;;;;;1.37;1.10;;;;;;;9.12;100.00;100013.34;6101487;28;20339;-71
2023/11/11 12:56:52;;;;;;;2.57;1.20;;;;;;;8.91;100.00;100015.41;6092009;28;20260;-70
2023/11/11 13:00:15;;;;;;;0.77;0.77;;;;;;;8.81;100.00;100017.28;6089869;28;20369;-71
2023/11/11 13:03:37;;;;;;;1.20;0.90;;;;;;;8.96;100.00;100026.59;6083621;28;20241;-70
2023/11/11 13:07:00;;;;;;;2.03;1.10;;;;;;;9.01;100.00;100026.16;6083955;28;20225;-70
2023/11/11 13:10:23;;;;;;;0.60;0.60;;;;;;;8.95;100.00;100030.25;6079053;28;20323;-70
2023/11/11 13:13:47;;;;;;;0.73;0.50;;;;;;;8.97;100.00;100028.25;6080309;28;20236;-70
2023/11/11 13:17:07;;;;;;;2.10;0.80;;;;;;;8.95;100.00;100030.25;6081865;28;20521;-70
2023/11/11 13:20:29;;;;;;;1.43;0.70;;;;;;;9.16;100.00;100035.41;6085959;28;20233;-71
2023/11/11 13:23:50;;;;;;;1.07;0.97;;;;;;;9.37;100.00;100034.19;6091004;28;20248;-70
2023/11/11 13:27:11;;;;;;;0.67;0.67;;;;;;;9.37;100.00;100036.03;6081281;28;20638;-69
2023/11/11 13:30:33;;;;;;;0.60;0.60;;;;;;;9.37;100.00;100042.25;6082682;28;20237;-69
2023/11/11 13:33:54;;;;;;;3.70;1.73;;;;;;;9.35;100.00;100043.38;6082450;28;20225;-69
2023/11/11 13:37:17;;;;;;;3.90;1.37;;;;;;;9.37;100.00;100047.63;6083734;28;20233;-69
2023/11/11 13:40:42;;;;;;;1.70;1.60;;;;;;;9.53;100.00;100039.75;6090012;28;20225;-70
2023/11/11 13:44:06;;;;;;;0.87;0.87;;;;;;;9.56;100.00;100041.31;6091494;28;20236;-69
2023/11/11 13:47:27;;;;;;;0.97;0.77;;;;;;;9.27;100.00;100043.28;6080511;28;20237;-69
2023/11/11 13:50:48;;;;;;;1.63;1.53;;;;;;;9.04;100.00;100050.03;6089188;28;20653;-68
2023/11/11 13:54:09;;;;;;;1.77;0.70;;;;;;;8.93;100.00;100051.06;6088282;28;20237;-69
2023/11/11 13:57:31;;;;;;;1.03;0.67;;;;;;;9.05;100.00;100057.13;6078186;28;20265;-68
2023/11/11 14:00:53;;;;;;;0.83;0.83;;;;;;;8.98;100.00;100064.06;6086241;28;20240;-70
2023/11/11 14:04:57;;;;;;;0.63;0.63;;;;;;;8.92;100.00;100060.13;6094201;28;20233;-71
2023/11/11 14:08:18;;;;;;;0.70;0.60;;;;;;;8.98;100.00;100072.13;6082508;28;20890;-70
2023/11/11 14:11:42;;;;;;;0.73;0.73;;;;;;;8.95;100.00;100077.81;6080908;28;20237;-69
2023/11/11 14:15:06;;;;;;;1.50;0.93;;;;;;;8.85;100.00;100075.13;6086445;28;20225;-68
2023/11/11 14:18:27;;;;;;;1.30;1.20;;;;;;;8.90;100.00;100085.44;6094196;28;20248;-68
2023/11/11 14:21:48;;;;;;;4.50;0.90;;;;;;;8.82;100.00;100072.75;6089040;28;20228;-69
2023/11/11 14:25:10;;;;;;;0.90;0.90;;;;;;;8.84;100.00;100081.50;6084764;28;20330;-70
2023/11/11 14:28:30;;;;;;;1.87;1.37;;;;;;;8.70;100.00;100087.31;6088410;28;20249;-70
2023/11/11 14:31:53;;;;;;;0.97;0.97;;;;;;;8.61;100.00;100086.34;6093385;28;20697;-69
2023/11/11 14:35:16;;;;;;;0.70;0.70;;;;;;;8.68;100.00;100087.47;6085161;28;20245;-69
2023/11/11 14:38:37;;;;;;;5.93;1.63;;;;;;;8.60;100.00;100090.03;6085953;28;20237;-69
2023/11/11 14:41:58;;;;;;;1.00;0.90;;;;;;;8.65;100.00;100090.44;6086468;29;20263;-68
2023/11/11 14:45:21;;;;;;;0.80;0.80;;;;;;;8.64;100.00;100093.25;6080742;28;20835;-67
2023/11/11 14:48:43;;;;;;;1.00;0.83;;;;;;;8.61;100.00;100098.94;6081143;28;20623;-68
2023/11/11 14:52:04;;;;;;;1.90;1.00;;;;;;;8.77;100.00;100094.66;6090933;28;20244;-68
2023/11/11 14:55:29;;;;;;;1.90;1.57;;;;;;;8.65;100.00;100100.34;6081734;28;20233;-68
2023/11/11 14:58:52;;;;;;;2.17;1.47;;;;;;;8.68;100.00;100100.03;6082836;28;20264;-69
2023/11/11 15:02:13;;;;;;;3.57;1.53;;;;;;;8.72;100.00;100113.06;6093035;28;20248;-69
2023/11/11 15:05:35;;;;;;;0.70;0.70;;;;;;;8.73;100.00;100119.28;6084009;28;20324;-69
2023/11/11 15:08:56;;;;;;;2.63;0.90;;;;;;;8.68;100.00;100117.00;6085522;28;20228;-69
2023/11/11 15:12:19;;;;;;;1.93;1.80;;;;;;;8.56;100.00;100114.63;6081226;28;20233;-68
2023/11/11 15:15:40;;;;;;;1.00;0.90;;;;;;;8.53;100.00;100121.13;6077689;28;20521;-69
2023/11/11 15:19:01;;;;;;;0.83;0.63;;;;;;;8.51;100.00;100128.47;6078899;28;20237;-69
2023/11/11 15:22:23;;;;;;;0.83;0.83;;;;;;;8.46;100.00;100124.53;6087048;28;20520;-68
2023/11/11 15:25:49;;;;;;;0.80;0.73;;;;;;;8.51;100.00;100133.03;6084039;28;20331;-69
2023/11/11 15:29:10;;;;;;;1.90;0.90;;;;;;;8.53;100.00;100136.41;6090784;28;20232;-70
2023/11/11 15:32:31;;;;;;;1.33;1.07;;;;;;;8.55;100.00;100147.84;6092052;28;20236;-70
2023/11/11 15:35:52;;;;;;;1.47;1.23;;;;;;;8.57;100.00;100146.69;6081835;28;20704;-69
2023/11/11 15:39:22;;;;;;;0.70;0.60;;;;;;;8.45;100.00;100147.84;6075066;28;20240;-69
2023/11/11 15:42:43;;;;;;;2.83;0.90;;;;;;;8.46;100.00;100148.69;6076770;28;20272;-70
2023/11/11 15:46:05;;;;;;;0.67;0.60;;;;;;;8.43;100.00;100159.72;6078222;28;20232;-69
2023/11/11 15:49:26;;;;;;;1.80;0.97;;;;;;;8.48;100.00;100161.00;6079891;28;20233;-69